Flight Track Log - Related Links

Times and Time Zones

All times are in EDT time to prevent confusion due to time zone crossing. See the N401CG flight status page for this flight to view local times or setup timezone preferences in your user account.

Time Position Orientation Groundspeed Altitude Reporting Facility
EDT Latitude Longitude Course Direction KTS MPH feet Rate Location/Type
Wed 07:58:52 AM 44.9500 -93.0833 153° Southeast 134 154 2,000  Level Minneapolis TRACON
Wed 07:59:31 AM 44.9756 -93.0494 43° Northeast 163 188 2,700 1,500 Climbing Minneapolis Center
Wed 08:00:32 AM 44.9858 -92.9781 78° East 193 222 4,500 1,820 Climbing Minneapolis Center
Wed 08:01:33 AM 44.9836 -92.9094 93° East 178 205 6,400 1,721 Climbing Minneapolis Center
Wed 08:02:34 AM 44.9597 -92.8511 120° Southeast 185 213 8,000 1,721 Climbing Minneapolis Center
Wed 08:03:35 AM 44.9153 -92.8256 158° South 173 199 9,900 1,721 Climbing Minneapolis Center
Wed 08:04:00 AM 44.6379 -92.8509 153° Southeast  Level FlightAware Approximate
Wed 08:04:36 AM 44.8736 -92.7989 156° South 164 189 11,500  Level Minneapolis Center
Wed 08:05:37 AM 44.8336 -92.7739 156° South 160 184 12,100 246 Climbing Minneapolis Center
Wed 08:06:38 AM 44.7872 -92.7431 155° Southeast 181 208 12,000 -49 Descending Minneapolis Center
Wed 08:07:40 AM 44.7406 -92.7117 154° Southeast 185 213 12,000  Level Minneapolis Center
Wed 08:08:41 AM 44.6944 -92.6806 154° Southeast 184 212 12,000  Level Minneapolis Center
Wed 08:09:42 AM 44.6486 -92.6511 155° Southeast 181 208 12,000 393 Level Minneapolis Center
Wed 08:10:43 AM 44.6139 -92.5972 132° Southeast 187 215 12,800 984 Climbing Minneapolis Center
Wed 08:11:44 AM 44.5767 -92.5269 127° Southeast 187 215 14,000 689 Climbing Minneapolis Center
Wed 08:12:45 AM 44.5414 -92.4647 128° Southeast 206 237 14,200 984 Climbing Minneapolis Center
Wed 08:13:46 AM 44.5097 -92.4061 127° Southeast 189 217 16,000 1,328 Climbing Minneapolis Center
Wed 08:14:47 AM 44.4764 -92.3519 131° Southeast 182 209 16,900 439 Climbing Minneapolis Center
Wed 08:15:49 AM 44.4386 -92.2842 128° Southeast 229 264 16,900  Level Minneapolis Center
Wed 08:16:50 AM 44.3953 -92.2064 128° Southeast 237 273 16,900  Level Minneapolis Center
Wed 08:18:04 AM 44.3444 -92.1144 128° Southeast 240 276 16,900  Level Minneapolis Center
Wed 08:19:05 AM 44.3033 -92.0408 128° Southeast 242 278 16,900  Level Minneapolis Center
Wed 08:20:07 AM 44.2606 -91.9678 129° Southeast 247 284 16,900 49 Level Minneapolis Center
Wed 08:21:08 AM 44.2150 -91.8881 129° Southeast 244 281 17,000 33 Climbing Minneapolis Center
Wed 08:23:11 AM 44.1289 -91.7381 129° Southeast 251 289 17,000 33 Level Minneapolis Center
Wed 08:24:12 AM 44.0822 -91.6553 128° Southeast 253 291 17,100  Climbing Minneapolis Center
Wed 08:25:13 AM 44.0389 -91.5800 129° Southeast 253 291 17,000 -49 Descending Minneapolis Center
Wed 08:26:15 AM 43.9917 -91.4983 129° Southeast 252 290 17,000  Level Minneapolis Center
Wed 08:27:16 AM 43.9475 -91.4208 128° Southeast 257 296 17,000  Level Minneapolis Center
Wed 08:28:17 AM 43.9025 -91.3450 129° Southeast 257 296 17,000  Level Minneapolis Center
Wed 08:29:19 AM 43.8561 -91.2650 129° Southeast 258 297 17,000  Level Minneapolis Center
Wed 08:30:20 AM 43.8089 -91.1847 129° Southeast 258 297 17,000  Level Minneapolis Center
Wed 08:31:21 AM 43.7622 -91.1042 129° Southeast 258 297 17,000  Level Minneapolis Center
Wed 08:32:23 AM 43.7181 -91.0294 129° Southeast 260 299 17,000 -244 Level Minneapolis Center
Wed 08:33:24 AM 43.6697 -90.9486 130° Southeast 261 300 16,500 -1,082 Descending Minneapolis Center
Wed 08:34:25 AM 43.6169 -90.8594 129° Southeast 287 330 14,800 -1,610 Descending Minneapolis Center
Wed 08:35:27 AM 43.5681 -90.7772 129° Southeast 288 331 13,200 -1,610 Descending Minneapolis Center
Wed 08:36:28 AM 43.5192 -90.6914 128° Southeast 274 315 11,500 -1,721 Descending Minneapolis Center
Wed 08:37:29 AM 43.4700 -90.6089 129° Southeast 268 308 9,700 -1,707 Descending Minneapolis Center
Wed 08:38:31 AM 43.4200 -90.5258 130° Southeast 270 311 8,000 -1,610 Descending Minneapolis Center
Wed 08:39:32 AM 43.3756 -90.4514 129° Southeast 265 305 6,400 -1,426 Descending Minneapolis Center
Wed 08:40:33 AM 43.3275 -90.3708 129° Southeast 261 300 5,100 -927 Descending Minneapolis Center
Wed 08:41:35 AM 43.2842 -90.2972 129° Southeast 242 278 4,500 -581 Descending Minneapolis Center

Login

Don't have an account? Register now (free) for customized features, flight alerts, and more!